sensor_id;sensor_type;location;lat;lon;timestamp;temperature;humidity
1570;DHT22;778;50.120;8.698;2023-03-24T00:02:07;13.90;99.90
1570;DHT22;778;50.120;8.698;2023-03-24T00:04:35;13.90;99.90
1570;DHT22;778;50.120;8.698;2023-03-24T00:07:08;13.80;99.90
1570;DHT22;778;50.120;8.698;2023-03-24T00:09:41;13.80;99.90
1570;DHT22;778;50.120;8.698;2023-03-24T00:12:12;13.80;99.90
1570;DHT22;778;50.120;8.698;2023-03-24T00:14:44;13.80;99.90
1570;DHT22;778;50.120;8.698;2023-03-24T00:17:14;13.80;99.90
1570;DHT22;778;50.120;8.698;2023-03-24T00:19:43;13.80;99.90
1570;DHT22;778;50.120;8.698;2023-03-24T00:22:12;13.80;99.90
1570;DHT22;778;50.120;8.698;2023-03-24T00:24:41;13.80;99.90
1570;DHT22;778;50.120;8.698;2023-03-24T00:27:12;13.80;99.90
1570;DHT22;778;50.120;8.698;2023-03-24T00:29:43;13.80;99.90
1570;DHT22;778;50.120;8.698;2023-03-24T00:32:13;13.70;99.90
1570;DHT22;778;50.120;8.698;2023-03-24T00:34:42;13.70;99.90
1570;DHT22;778;50.120;8.698;2023-03-24T00:37:11;13.70;99.90
1570;DHT22;778;50.120;8.698;2023-03-24T00:39:41;13.70;99.90
1570;DHT22;778;50.120;8.698;2023-03-24T00:42:10;13.70;99.90
1570;DHT22;778;50.120;8.698;2023-03-24T00:44:39;13.70;99.90
1570;DHT22;778;50.120;8.698;2023-03-24T00:47:10;13.70;99.90
1570;DHT22;778;50.120;8.698;2023-03-24T00:49:40;13.70;99.90
1570;DHT22;778;50.120;8.698;2023-03-24T00:52:12;13.70;99.90
1570;DHT22;778;50.120;8.698;2023-03-24T00:54:41;13.70;99.90
1570;DHT22;778;50.120;8.698;2023-03-24T00:57:12;13.70;99.90
1570;DHT22;778;50.120;8.698;2023-03-24T00:59:41;13.60;99.90
1570;DHT22;778;50.120;8.698;2023-03-24T01:02:15;13.60;99.90
1570;DHT22;778;50.120;8.698;2023-03-24T01:04:47;13.60;99.90
1570;DHT22;778;50.120;8.698;2023-03-24T01:07:15;13.50;99.90
1570;DHT22;778;50.120;8.698;2023-03-24T01:09:45;13.50;99.90
1570;DHT22;778;50.120;8.698;2023-03-24T01:12:23;13.50;99.90
1570;DHT22;778;50.120;8.698;2023-03-24T01:14:52;13.50;99.90
1570;DHT22;778;50.120;8.698;2023-03-24T01:17:21;13.50;99.90
1570;DHT22;778;50.120;8.698;2023-03-24T01:19:53;13.50;99.90
1570;DHT22;778;50.120;8.698;2023-03-24T01:22:25;13.40;99.90
1570;DHT22;778;50.120;8.698;2023-03-24T01:24:54;13.40;99.90
1570;DHT22;778;50.120;8.698;2023-03-24T01:27:23;13.40;99.90
1570;DHT22;778;50.120;8.698;2023-03-24T01:29:57;13.30;99.90
1570;DHT22;778;50.120;8.698;2023-03-24T01:32:27;13.20;99.90
1570;DHT22;778;50.120;8.698;2023-03-24T01:34:57;13.30;99.90
1570;DHT22;778;50.120;8.698;2023-03-24T01:37:25;13.30;99.90
1570;DHT22;778;50.120;8.698;2023-03-24T01:39:57;13.20;99.90
1570;DHT22;778;50.120;8.698;2023-03-24T01:42:27;13.20;99.90
1570;DHT22;778;50.120;8.698;2023-03-24T01:44:59;13.20;99.90
1570;DHT22;778;50.120;8.698;2023-03-24T01:47:29;13.20;99.90
1570;DHT22;778;50.120;8.698;2023-03-24T01:50:02;13.20;99.90
1570;DHT22;778;50.120;8.698;2023-03-24T01:52:33;13.20;99.90
1570;DHT22;778;50.120;8.698;2023-03-24T01:55:06;13.20;99.90
1570;DHT22;778;50.120;8.698;2023-03-24T01:57:42;13.20;99.90
1570;DHT22;778;50.120;8.698;2023-03-24T02:00:15;13.10;99.90
1570;DHT22;778;50.120;8.698;2023-03-24T02:03:15;13.20;99.90
1570;DHT22;778;50.120;8.698;2023-03-24T02:05:55;13.10;99.90
1570;DHT22;778;50.120;8.698;2023-03-24T02:08:33;13.10;99.90
1570;DHT22;778;50.120;8.698;2023-03-24T02:11:06;13.10;99.90
1570;DHT22;778;50.120;8.698;2023-03-24T02:13:44;13.10;99.90
1570;DHT22;778;50.120;8.698;2023-03-24T02:16:22;13.10;99.90
1570;DHT22;778;50.120;8.698;2023-03-24T02:28:56;13.10;99.90
1570;DHT22;778;50.120;8.698;2023-03-24T02:32:04;13.10;99.90
1570;DHT22;778;50.120;8.698;2023-03-24T02:38:14;13.00;99.90
1570;DHT22;778;50.120;8.698;2023-03-24T02:40:58;13.00;99.90
1570;DHT22;778;50.120;8.698;2023-03-24T02:43:36;13.00;99.90
1570;DHT22;778;50.120;8.698;2023-03-24T02:46:14;12.90;99.90
1570;DHT22;778;50.120;8.698;2023-03-24T02:48:57;12.80;99.90
1570;DHT22;778;50.120;8.698;2023-03-24T02:51:35;12.80;99.90
1570;DHT22;778;50.120;8.698;2023-03-24T02:54:10;12.80;99.90
1570;DHT22;778;50.120;8.698;2023-03-24T02:56:44;12.80;99.90
1570;DHT22;778;50.120;8.698;2023-03-24T02:59:30;12.70;99.90
1570;DHT22;778;50.120;8.698;2023-03-24T03:02:14;12.70;99.90
1570;DHT22;778;50.120;8.698;2023-03-24T03:04:54;12.60;99.90
1570;DHT22;778;50.120;8.698;2023-03-24T03:07:29;12.60;99.90
1570;DHT22;778;50.120;8.698;2023-03-24T03:10:08;12.70;99.90
1570;DHT22;778;50.120;8.698;2023-03-24T03:12:44;12.70;99.90
1570;DHT22;778;50.120;8.698;2023-03-24T03:15:20;12.80;99.90
1570;DHT22;778;50.120;8.698;2023-03-24T03:17:55;12.80;99.90
1570;DHT22;778;50.120;8.698;2023-03-24T03:20:33;12.80;99.90
1570;DHT22;778;50.120;8.698;2023-03-24T03:23:08;12.80;99.90
1570;DHT22;778;50.120;8.698;2023-03-24T03:25:41;12.80;99.90
1570;DHT22;778;50.120;8.698;2023-03-24T03:28:15;12.80;99.90
1570;DHT22;778;50.120;8.698;2023-03-24T03:30:49;12.80;99.90
1570;DHT22;778;50.120;8.698;2023-03-24T03:33:21;12.80;99.90
1570;DHT22;778;50.120;8.698;2023-03-24T03:35:57;12.80;99.90
1570;DHT22;778;50.120;8.698;2023-03-24T03:38:32;12.80;99.90
1570;DHT22;778;50.120;8.698;2023-03-24T03:41:05;12.80;99.90
1570;DHT22;778;50.120;8.698;2023-03-24T03:43:37;12.80;99.90
1570;DHT22;778;50.120;8.698;2023-03-24T03:46:06;12.90;99.90
1570;DHT22;778;50.120;8.698;2023-03-24T03:48:38;12.90;99.90
1570;DHT22;778;50.120;8.698;2023-03-24T03:51:07;12.90;99.90
1570;DHT22;778;50.120;8.698;2023-03-24T03:53:50;12.90;99.90
1570;DHT22;778;50.120;8.698;2023-03-24T03:56:24;12.90;99.90
1570;DHT22;778;50.120;8.698;2023-03-24T03:59:21;12.90;99.90
1570;DHT22;778;50.120;8.698;2023-03-24T04:01:50;13.00;99.90
1570;DHT22;778;50.120;8.698;2023-03-24T04:08:05;13.00;99.90
1570;DHT22;778;50.120;8.698;2023-03-24T04:11:12;13.00;99.90
1570;DHT22;778;50.120;8.698;2023-03-24T04:14:27;13.10;99.90
1570;DHT22;778;50.120;8.698;2023-03-24T04:17:57;13.20;99.90
1570;DHT22;778;50.120;8.698;2023-03-24T04:20:58;13.30;99.90
1570;DHT22;778;50.120;8.698;2023-03-24T04:23:44;13.30;99.90
1570;DHT22;778;50.120;8.698;2023-03-24T04:26:26;13.40;99.90
1570;DHT22;778;50.120;8.698;2023-03-24T04:29:05;13.50;99.90
1570;DHT22;778;50.120;8.698;2023-03-24T04:31:41;13.60;99.90
1570;DHT22;778;50.120;8.698;2023-03-24T04:34:18;13.60;99.90
1570;DHT22;778;50.120;8.698;2023-03-24T04:36:51;13.70;99.90
1570;DHT22;778;50.120;8.698;2023-03-24T04:39:51;13.70;99.90
1570;DHT22;778;50.120;8.698;2023-03-24T04:42:29;13.70;99.90
1570;DHT22;778;50.120;8.698;2023-03-24T04:45:03;13.70;99.90
1570;DHT22;778;50.120;8.698;2023-03-24T04:48:13;13.70;99.90
1570;DHT22;778;50.120;8.698;2023-03-24T04:51:06;13.70;99.90
1570;DHT22;778;50.120;8.698;2023-03-24T04:53:58;13.70;99.90
1570;DHT22;778;50.120;8.698;2023-03-24T04:56:33;13.70;99.90
1570;DHT22;778;50.120;8.698;2023-03-24T04:59:21;13.60;99.90
1570;DHT22;778;50.120;8.698;2023-03-24T05:01:49;13.60;99.90
1570;DHT22;778;50.120;8.698;2023-03-24T05:04:38;13.60;99.90
1570;DHT22;778;50.120;8.698;2023-03-24T05:07:14;13.60;99.90
1570;DHT22;778;50.120;8.698;2023-03-24T05:09:46;13.50;99.90
1570;DHT22;778;50.120;8.698;2023-03-24T05:12:14;13.50;99.90
1570;DHT22;778;50.120;8.698;2023-03-24T05:15:02;13.50;99.90
1570;DHT22;778;50.120;8.698;2023-03-24T05:17:31;13.50;99.90
1570;DHT22;778;50.120;8.698;2023-03-24T05:20:01;13.50;99.90
1570;DHT22;778;50.120;8.698;2023-03-24T05:22:32;13.40;99.90
1570;DHT22;778;50.120;8.698;2023-03-24T05:25:01;13.40;99.90
1570;DHT22;778;50.120;8.698;2023-03-24T05:27:29;13.40;99.90
1570;DHT22;778;50.120;8.698;2023-03-24T05:30:06;13.40;99.90
1570;DHT22;778;50.120;8.698;2023-03-24T05:32:36;13.40;99.90
1570;DHT22;778;50.120;8.698;2023-03-24T05:35:07;13.40;99.90
1570;DHT22;778;50.120;8.698;2023-03-24T05:37:35;13.40;99.90
1570;DHT22;778;50.120;8.698;2023-03-24T05:40:04;13.30;99.90
1570;DHT22;778;50.120;8.698;2023-03-24T05:42:43;13.40;99.90
1570;DHT22;778;50.120;8.698;2023-03-24T05:45:13;13.40;99.90
1570;DHT22;778;50.120;8.698;2023-03-24T05:47:41;13.40;99.90
1570;DHT22;778;50.120;8.698;2023-03-24T05:50:11;13.40;99.90
1570;DHT22;778;50.120;8.698;2023-03-24T05:52:40;13.40;99.90
1570;DHT22;778;50.120;8.698;2023-03-24T05:55:28;13.40;99.90
1570;DHT22;778;50.120;8.698;2023-03-24T05:58:06;13.40;99.90
1570;DHT22;778;50.120;8.698;2023-03-24T06:00:56;13.40;99.90
1570;DHT22;778;50.120;8.698;2023-03-24T06:03:33;13.50;99.90
1570;DHT22;778;50.120;8.698;2023-03-24T06:06:10;13.40;99.90
1570;DHT22;778;50.120;8.698;2023-03-24T06:08:42;13.40;99.90
1570;DHT22;778;50.120;8.698;2023-03-24T06:11:13;13.50;99.90
1570;DHT22;778;50.120;8.698;2023-03-24T06:13:52;13.50;99.90
1570;DHT22;778;50.120;8.698;2023-03-24T06:16:25;13.50;99.90
1570;DHT22;778;50.120;8.698;2023-03-24T06:18:59;13.50;99.90
1570;DHT22;778;50.120;8.698;2023-03-24T06:21:49;13.50;99.90
1570;DHT22;778;50.120;8.698;2023-03-24T06:24:22;13.50;99.90
1570;DHT22;778;50.120;8.698;2023-03-24T06:26:51;13.50;99.90
1570;DHT22;778;50.120;8.698;2023-03-24T06:29:19;13.50;99.90
1570;DHT22;778;50.120;8.698;2023-03-24T06:31:48;13.60;99.90
1570;DHT22;778;50.120;8.698;2023-03-24T06:34:17;13.60;99.90
1570;DHT22;778;50.120;8.698;2023-03-24T06:37:00;13.60;99.90
1570;DHT22;778;50.120;8.698;2023-03-24T06:39:29;13.60;99.90
1570;DHT22;778;50.120;8.698;2023-03-24T06:41:57;13.60;99.90
1570;DHT22;778;50.120;8.698;2023-03-24T06:44:28;13.70;99.90
1570;DHT22;778;50.120;8.698;2023-03-24T06:46:57;13.70;99.90
1570;DHT22;778;50.120;8.698;2023-03-24T06:49:25;13.70;99.90
1570;DHT22;778;50.120;8.698;2023-03-24T06:51:53;13.70;99.90
1570;DHT22;778;50.120;8.698;2023-03-24T06:54:25;13.70;99.90
1570;DHT22;778;50.120;8.698;2023-03-24T06:56:55;13.70;99.90
1570;DHT22;778;50.120;8.698;2023-03-24T06:59:27;13.70;99.90
1570;DHT22;778;50.120;8.698;2023-03-24T07:01:55;13.70;99.90
1570;DHT22;778;50.120;8.698;2023-03-24T07:04:25;13.70;99.90
1570;DHT22;778;50.120;8.698;2023-03-24T07:07:08;13.80;99.90
1570;DHT22;778;50.120;8.698;2023-03-24T07:10:20;13.90;99.90
1570;DHT22;778;50.120;8.698;2023-03-24T07:12:49;14.00;99.90
1570;DHT22;778;50.120;8.698;2023-03-24T07:15:17;14.00;99.90
1570;DHT22;778;50.120;8.698;2023-03-24T07:17:46;14.00;99.90
1570;DHT22;778;50.120;8.698;2023-03-24T07:20:21;14.00;99.90
1570;DHT22;778;50.120;8.698;2023-03-24T07:22:55;14.00;99.90
1570;DHT22;778;50.120;8.698;2023-03-24T07:25:27;14.00;99.90
1570;DHT22;778;50.120;8.698;2023-03-24T07:28:22;14.00;99.90
1570;DHT22;778;50.120;8.698;2023-03-24T07:30:51;14.00;99.90
1570;DHT22;778;50.120;8.698;2023-03-24T07:33:22;14.00;99.90
1570;DHT22;778;50.120;8.698;2023-03-24T07:35:53;14.00;99.90
1570;DHT22;778;50.120;8.698;2023-03-24T07:38:24;14.00;99.90
1570;DHT22;778;50.120;8.698;2023-03-24T07:40:59;14.00;99.90
1570;DHT22;778;50.120;8.698;2023-03-24T07:43:30;14.00;99.90
1570;DHT22;778;50.120;8.698;2023-03-24T07:46:19;14.10;99.90
1570;DHT22;778;50.120;8.698;2023-03-24T07:48:47;14.10;99.90
1570;DHT22;778;50.120;8.698;2023-03-24T07:51:17;14.00;99.90
1570;DHT22;778;50.120;8.698;2023-03-24T07:53:56;14.00;99.90
1570;DHT22;778;50.120;8.698;2023-03-24T07:56:46;14.00;99.90
1570;DHT22;778;50.120;8.698;2023-03-24T07:59:15;13.90;99.90
1570;DHT22;778;50.120;8.698;2023-03-24T08:01:50;13.90;99.90
1570;DHT22;778;50.120;8.698;2023-03-24T08:04:56;13.80;99.90
1570;DHT22;778;50.120;8.698;2023-03-24T08:07:44;13.80;99.90
1570;DHT22;778;50.120;8.698;2023-03-24T08:10:16;13.70;99.90
1570;DHT22;778;50.120;8.698;2023-03-24T08:12:46;13.70;99.90
1570;DHT22;778;50.120;8.698;2023-03-24T08:15:15;13.70;99.90
1570;DHT22;778;50.120;8.698;2023-03-24T08:17:43;13.70;99.90
1570;DHT22;778;50.120;8.698;2023-03-24T08:20:13;13.70;99.90
1570;DHT22;778;50.120;8.698;2023-03-24T08:22:43;13.70;99.90
1570;DHT22;778;50.120;8.698;2023-03-24T08:25:18;13.70;99.90
1570;DHT22;778;50.120;8.698;2023-03-24T08:27:48;13.80;99.90
1570;DHT22;778;50.120;8.698;2023-03-24T08:30:18;13.80;99.90
1570;DHT22;778;50.120;8.698;2023-03-24T08:32:49;13.70;99.90
1570;DHT22;778;50.120;8.698;2023-03-24T08:35:20;13.60;99.90
1570;DHT22;778;50.120;8.698;2023-03-24T08:37:50;13.60;99.90
1570;DHT22;778;50.120;8.698;2023-03-24T08:40:20;13.60;99.90
1570;DHT22;778;50.120;8.698;2023-03-24T08:42:53;13.50;99.90
1570;DHT22;778;50.120;8.698;2023-03-24T08:45:25;13.50;99.90
1570;DHT22;778;50.120;8.698;2023-03-24T08:47:58;13.50;99.90
1570;DHT22;778;50.120;8.698;2023-03-24T08:50:31;13.50;99.90
1570;DHT22;778;50.120;8.698;2023-03-24T08:53:01;13.50;99.90
1570;DHT22;778;50.120;8.698;2023-03-24T08:55:30;13.60;99.90
1570;DHT22;778;50.120;8.698;2023-03-24T08:58:00;13.60;99.90
1570;DHT22;778;50.120;8.698;2023-03-24T09:00:28;13.60;99.90
1570;DHT22;778;50.120;8.698;2023-03-24T09:02:57;13.60;99.90
1570;DHT22;778;50.120;8.698;2023-03-24T09:05:27;13.60;99.90
1570;DHT22;778;50.120;8.698;2023-03-24T09:08:10;13.60;99.90
1570;DHT22;778;50.120;8.698;2023-03-24T09:10:39;13.60;99.90
1570;DHT22;778;50.120;8.698;2023-03-24T09:13:10;13.60;99.90
1570;DHT22;778;50.120;8.698;2023-03-24T09:15:39;13.60;99.90
1570;DHT22;778;50.120;8.698;2023-03-24T09:18:07;13.60;99.90
1570;DHT22;778;50.120;8.698;2023-03-24T09:20:36;13.50;99.90
1570;DHT22;778;50.120;8.698;2023-03-24T09:23:04;13.50;99.90
1570;DHT22;778;50.120;8.698;2023-03-24T09:25:32;13.50;99.90
1570;DHT22;778;50.120;8.698;2023-03-24T09:28:01;13.50;99.90
1570;DHT22;778;50.120;8.698;2023-03-24T09:30:31;13.40;99.90
1570;DHT22;778;50.120;8.698;2023-03-24T09:33:01;13.40;99.90
1570;DHT22;778;50.120;8.698;2023-03-24T09:35:30;13.30;99.90
1570;DHT22;778;50.120;8.698;2023-03-24T09:37:58;13.30;99.90
1570;DHT22;778;50.120;8.698;2023-03-24T09:40:28;13.20;99.90
1570;DHT22;778;50.120;8.698;2023-03-24T09:43:03;13.20;99.90
1570;DHT22;778;50.120;8.698;2023-03-24T09:45:36;13.20;99.90
1570;DHT22;778;50.120;8.698;2023-03-24T09:48:12;13.30;99.90
1570;DHT22;778;50.120;8.698;2023-03-24T09:50:50;13.30;99.90
1570;DHT22;778;50.120;8.698;2023-03-24T09:53:28;13.30;99.90
1570;DHT22;778;50.120;8.698;2023-03-24T09:56:03;13.40;99.90
1570;DHT22;778;50.120;8.698;2023-03-24T09:58:38;13.50;99.90
1570;DHT22;778;50.120;8.698;2023-03-24T10:01:13;13.40;99.90
1570;DHT22;778;50.120;8.698;2023-03-24T10:03:42;13.30;99.90
1570;DHT22;778;50.120;8.698;2023-03-24T10:06:16;13.40;99.90
1570;DHT22;778;50.120;8.698;2023-03-24T10:08:51;13.40;99.90
1570;DHT22;778;50.120;8.698;2023-03-24T10:11:30;13.30;99.90
1570;DHT22;778;50.120;8.698;2023-03-24T10:14:09;13.30;99.90
1570;DHT22;778;50.120;8.698;2023-03-24T10:16:51;13.20;99.90
1570;DHT22;778;50.120;8.698;2023-03-24T10:19:34;13.10;99.90
1570;DHT22;778;50.120;8.698;2023-03-24T10:22:14;13.00;99.90
1570;DHT22;778;50.120;8.698;2023-03-24T10:24:50;12.90;99.90
1570;DHT22;778;50.120;8.698;2023-03-24T10:27:27;12.90;99.90
1570;DHT22;778;50.120;8.698;2023-03-24T10:30:02;12.80;99.90
1570;DHT22;778;50.120;8.698;2023-03-24T10:32:36;12.70;99.90
1570;DHT22;778;50.120;8.698;2023-03-24T10:35:06;12.70;99.90
1570;DHT22;778;50.120;8.698;2023-03-24T10:37:36;12.60;99.90
1570;DHT22;778;50.120;8.698;2023-03-24T10:40:15;12.60;99.90
1570;DHT22;778;50.120;8.698;2023-03-24T10:42:47;12.70;99.90
1570;DHT22;778;50.120;8.698;2023-03-24T10:45:37;12.70;99.90
1570;DHT22;778;50.120;8.698;2023-03-24T10:48:08;12.80;99.90
1570;DHT22;778;50.120;8.698;2023-03-24T10:50:42;12.90;99.90
1570;DHT22;778;50.120;8.698;2023-03-24T10:53:16;12.90;99.90
1570;DHT22;778;50.120;8.698;2023-03-24T10:55:46;13.10;99.90
1570;DHT22;778;50.120;8.698;2023-03-24T10:58:19;13.10;99.90
1570;DHT22;778;50.120;8.698;2023-03-24T11:00:56;13.30;99.90
1570;DHT22;778;50.120;8.698;2023-03-24T11:03:29;13.50;99.90
1570;DHT22;778;50.120;8.698;2023-03-24T11:06:00;13.60;99.90
1570;DHT22;778;50.120;8.698;2023-03-24T11:08:33;13.60;99.90
1570;DHT22;778;50.120;8.698;2023-03-24T11:11:14;13.60;99.90
1570;DHT22;778;50.120;8.698;2023-03-24T11:13:53;13.60;99.90
1570;DHT22;778;50.120;8.698;2023-03-24T11:16:27;13.60;99.90
1570;DHT22;778;50.120;8.698;2023-03-24T11:19:00;13.60;99.90
1570;DHT22;778;50.120;8.698;2023-03-24T11:21:34;13.60;99.90
1570;DHT22;778;50.120;8.698;2023-03-24T11:24:09;13.60;99.90
1570;DHT22;778;50.120;8.698;2023-03-24T11:26:39;13.60;99.90
1570;DHT22;778;50.120;8.698;2023-03-24T11:29:13;13.80;99.90
1570;DHT22;778;50.120;8.698;2023-03-24T11:31:50;13.90;99.90
1570;DHT22;778;50.120;8.698;2023-03-24T11:34:24;13.90;99.90
1570;DHT22;778;50.120;8.698;2023-03-24T11:37:01;14.00;99.90
1570;DHT22;778;50.120;8.698;2023-03-24T11:39:32;14.00;99.90
1570;DHT22;778;50.120;8.698;2023-03-24T11:42:04;14.20;99.90
1570;DHT22;778;50.120;8.698;2023-03-24T11:44:48;14.30;99.90
1570;DHT22;778;50.120;8.698;2023-03-24T11:47:26;14.50;99.90
1570;DHT22;778;50.120;8.698;2023-03-24T11:50:13;14.60;99.90
1570;DHT22;778;50.120;8.698;2023-03-24T11:52:48;14.80;99.90
1570;DHT22;778;50.120;8.698;2023-03-24T11:55:23;15.00;99.90
1570;DHT22;778;50.120;8.698;2023-03-24T11:58:01;15.00;99.90
1570;DHT22;778;50.120;8.698;2023-03-24T12:00:34;15.10;99.90
1570;DHT22;778;50.120;8.698;2023-03-24T12:03:38;15.20;99.90
1570;DHT22;778;50.120;8.698;2023-03-24T12:06:38;15.20;99.90
1570;DHT22;778;50.120;8.698;2023-03-24T12:09:19;15.50;99.90
1570;DHT22;778;50.120;8.698;2023-03-24T12:12:11;15.80;99.90
1570;DHT22;778;50.120;8.698;2023-03-24T12:15:00;15.90;99.90
1570;DHT22;778;50.120;8.698;2023-03-24T12:18:00;16.00;99.90
1570;DHT22;778;50.120;8.698;2023-03-24T12:20:40;16.20;99.90
1570;DHT22;778;50.120;8.698;2023-03-24T12:23:16;16.40;99.90
1570;DHT22;778;50.120;8.698;2023-03-24T12:26:03;16.40;99.90
1570;DHT22;778;50.120;8.698;2023-03-24T12:28:54;16.40;99.90
1570;DHT22;778;50.120;8.698;2023-03-24T12:31:42;16.60;99.90
1570;DHT22;778;50.120;8.698;2023-03-24T12:37:26;16.70;99.90
1570;DHT22;778;50.120;8.698;2023-03-24T12:40:08;16.60;99.90
1570;DHT22;778;50.120;8.698;2023-03-24T12:42:58;16.50;99.90
1570;DHT22;778;50.120;8.698;2023-03-24T12:45:39;16.60;99.90
1570;DHT22;778;50.120;8.698;2023-03-24T12:48:26;16.70;99.90
1570;DHT22;778;50.120;8.698;2023-03-24T12:51:20;16.70;99.90
1570;DHT22;778;50.120;8.698;2023-03-24T12:54:05;16.50;99.90
1570;DHT22;778;50.120;8.698;2023-03-24T12:56:44;16.40;99.90
1570;DHT22;778;50.120;8.698;2023-03-24T12:59:18;16.50;99.90
1570;DHT22;778;50.120;8.698;2023-03-24T13:01:51;16.60;99.90
1570;DHT22;778;50.120;8.698;2023-03-24T13:04:32;16.70;99.90
1570;DHT22;778;50.120;8.698;2023-03-24T13:07:06;16.70;99.90
1570;DHT22;778;50.120;8.698;2023-03-24T13:09:42;16.70;99.90
1570;DHT22;778;50.120;8.698;2023-03-24T13:12:19;16.60;99.90
1570;DHT22;778;50.120;8.698;2023-03-24T13:14:56;16.40;99.90
1570;DHT22;778;50.120;8.698;2023-03-24T13:17:31;16.40;99.90
1570;DHT22;778;50.120;8.698;2023-03-24T13:20:03;16.30;99.90
1570;DHT22;778;50.120;8.698;2023-03-24T13:22:35;16.40;99.90
1570;DHT22;778;50.120;8.698;2023-03-24T13:25:09;16.40;99.90
1570;DHT22;778;50.120;8.698;2023-03-24T13:27:50;16.50;99.90
1570;DHT22;778;50.120;8.698;2023-03-24T13:30:29;16.30;99.30
1570;DHT22;778;50.120;8.698;2023-03-24T13:33:04;16.20;99.90
1570;DHT22;778;50.120;8.698;2023-03-24T13:35:51;16.30;99.90
1570;DHT22;778;50.120;8.698;2023-03-24T13:38:34;16.40;99.90
1570;DHT22;778;50.120;8.698;2023-03-24T13:41:05;16.50;98.30
1570;DHT22;778;50.120;8.698;2023-03-24T13:43:35;16.60;97.80
1570;DHT22;778;50.120;8.698;2023-03-24T13:46:05;16.60;97.10
1570;DHT22;778;50.120;8.698;2023-03-24T13:48:40;16.60;99.00
1570;DHT22;778;50.120;8.698;2023-03-24T13:51:15;16.60;99.90
1570;DHT22;778;50.120;8.698;2023-03-24T13:53:48;16.80;99.90
1570;DHT22;778;50.120;8.698;2023-03-24T13:56:29;16.70;98.30
1570;DHT22;778;50.120;8.698;2023-03-24T13:59:23;16.50;96.80
1570;DHT22;778;50.120;8.698;2023-03-24T14:02:22;16.60;97.00
1570;DHT22;778;50.120;8.698;2023-03-24T14:05:06;16.50;94.50
1570;DHT22;778;50.120;8.698;2023-03-24T14:07:45;16.50;93.50
1570;DHT22;778;50.120;8.698;2023-03-24T14:10:42;16.60;99.40
1570;DHT22;778;50.120;8.698;2023-03-24T14:13:34;16.60;96.90
1570;DHT22;778;50.120;8.698;2023-03-24T14:16:40;16.60;99.90
1570;DHT22;778;50.120;8.698;2023-03-24T14:19:25;16.60;98.40
1570;DHT22;778;50.120;8.698;2023-03-24T14:22:06;16.70;94.00
1570;DHT22;778;50.120;8.698;2023-03-24T14:24:38;16.50;92.70
1570;DHT22;778;50.120;8.698;2023-03-24T14:27:30;16.50;94.20
1570;DHT22;778;50.120;8.698;2023-03-24T14:30:04;16.60;94.20
1570;DHT22;778;50.120;8.698;2023-03-24T14:32:43;16.70;93.90
1570;DHT22;778;50.120;8.698;2023-03-24T14:35:32;16.70;94.00
1570;DHT22;778;50.120;8.698;2023-03-24T14:38:03;16.60;90.80
1570;DHT22;778;50.120;8.698;2023-03-24T14:40:36;16.60;91.10
1570;DHT22;778;50.120;8.698;2023-03-24T14:43:17;16.70;93.70
1570;DHT22;778;50.120;8.698;2023-03-24T14:45:59;16.80;99.10
1570;DHT22;778;50.120;8.698;2023-03-24T14:48:35;16.80;95.00
1570;DHT22;778;50.120;8.698;2023-03-24T14:51:18;16.70;99.30
1570;DHT22;778;50.120;8.698;2023-03-24T14:53:56;16.70;96.20
1570;DHT22;778;50.120;8.698;2023-03-24T14:56:28;16.70;95.90
1570;DHT22;778;50.120;8.698;2023-03-24T14:59:02;16.60;96.80
1570;DHT22;778;50.120;8.698;2023-03-24T15:01:36;16.70;99.90
1570;DHT22;778;50.120;8.698;2023-03-24T15:04:07;16.60;97.30
1570;DHT22;778;50.120;8.698;2023-03-24T15:06:43;16.50;96.90
1570;DHT22;778;50.120;8.698;2023-03-24T15:09:14;16.50;98.40
1570;DHT22;778;50.120;8.698;2023-03-24T15:11:45;16.50;99.20
1570;DHT22;778;50.120;8.698;2023-03-24T15:14:21;16.60;99.90
1570;DHT22;778;50.120;8.698;2023-03-24T15:16:53;16.60;98.00
1570;DHT22;778;50.120;8.698;2023-03-24T15:19:26;16.50;96.40
1570;DHT22;778;50.120;8.698;2023-03-24T15:22:00;16.50;99.20
1570;DHT22;778;50.120;8.698;2023-03-24T15:24:32;16.40;96.70
1570;DHT22;778;50.120;8.698;2023-03-24T15:27:21;16.40;97.00
1570;DHT22;778;50.120;8.698;2023-03-24T15:29:54;16.40;97.10
1570;DHT22;778;50.120;8.698;2023-03-24T15:32:27;16.50;99.30
1570;DHT22;778;50.120;8.698;2023-03-24T15:35:02;16.50;97.90
1570;DHT22;778;50.120;8.698;2023-03-24T15:37:33;16.60;98.30
1570;DHT22;778;50.120;8.698;2023-03-24T15:40:30;16.60;97.80
1570;DHT22;778;50.120;8.698;2023-03-24T15:43:04;16.60;96.50
1570;DHT22;778;50.120;8.698;2023-03-24T15:45:37;16.60;96.70
1570;DHT22;778;50.120;8.698;2023-03-24T15:48:18;16.50;97.20
1570;DHT22;778;50.120;8.698;2023-03-24T15:50:58;16.50;96.80
1570;DHT22;778;50.120;8.698;2023-03-24T15:53:28;16.40;95.60
1570;DHT22;778;50.120;8.698;2023-03-24T15:56:05;16.40;95.70
1570;DHT22;778;50.120;8.698;2023-03-24T15:58:51;16.40;96.50
1570;DHT22;778;50.120;8.698;2023-03-24T16:01:24;16.30;95.60
1570;DHT22;778;50.120;8.698;2023-03-24T16:04:04;16.30;95.40
1570;DHT22;778;50.120;8.698;2023-03-24T16:06:34;16.30;95.90
1570;DHT22;778;50.120;8.698;2023-03-24T16:09:06;16.30;95.80
1570;DHT22;778;50.120;8.698;2023-03-24T16:11:36;16.30;96.50
1570;DHT22;778;50.120;8.698;2023-03-24T16:14:21;16.30;96.80
1570;DHT22;778;50.120;8.698;2023-03-24T16:16:53;16.20;95.60
1570;DHT22;778;50.120;8.698;2023-03-24T16:19:22;16.20;95.90
1570;DHT22;778;50.120;8.698;2023-03-24T16:21:52;16.20;95.70
1570;DHT22;778;50.120;8.698;2023-03-24T16:24:21;16.10;95.10
1570;DHT22;778;50.120;8.698;2023-03-24T16:26:50;16.10;95.50
1570;DHT22;778;50.120;8.698;2023-03-24T16:29:19;16.10;94.70
1570;DHT22;778;50.120;8.698;2023-03-24T16:31:50;16.00;96.10
1570;DHT22;778;50.120;8.698;2023-03-24T16:34:21;16.00;95.10
1570;DHT22;778;50.120;8.698;2023-03-24T16:36:52;16.00;95.60
1570;DHT22;778;50.120;8.698;2023-03-24T16:39:23;16.00;95.00
1570;DHT22;778;50.120;8.698;2023-03-24T16:41:53;16.00;95.60
1570;DHT22;778;50.120;8.698;2023-03-24T16:44:21;15.90;95.90
1570;DHT22;778;50.120;8.698;2023-03-24T16:46:51;15.90;96.20
1570;DHT22;778;50.120;8.698;2023-03-24T16:49:21;15.90;96.50
1570;DHT22;778;50.120;8.698;2023-03-24T16:51:52;16.00;97.60
1570;DHT22;778;50.120;8.698;2023-03-24T16:54:20;16.00;96.60
1570;DHT22;778;50.120;8.698;2023-03-24T16:56:49;16.00;97.40
1570;DHT22;778;50.120;8.698;2023-03-24T16:59:17;16.00;95.20
1570;DHT22;778;50.120;8.698;2023-03-24T17:01:46;16.00;94.00
1570;DHT22;778;50.120;8.698;2023-03-24T17:04:17;16.00;94.50
1570;DHT22;778;50.120;8.698;2023-03-24T17:06:48;16.00;93.30
1570;DHT22;778;50.120;8.698;2023-03-24T17:09:20;15.90;92.30
1570;DHT22;778;50.120;8.698;2023-03-24T17:11:51;15.90;92.20
1570;DHT22;778;50.120;8.698;2023-03-24T17:14:21;15.80;92.40
1570;DHT22;778;50.120;8.698;2023-03-24T17:16:49;15.80;92.00
1570;DHT22;778;50.120;8.698;2023-03-24T17:19:22;15.70;92.70
1570;DHT22;778;50.120;8.698;2023-03-24T17:21:57;15.70;93.00
1570;DHT22;778;50.120;8.698;2023-03-24T17:24:29;15.70;92.80
1570;DHT22;778;50.120;8.698;2023-03-24T17:27:02;15.60;93.60
1570;DHT22;778;50.120;8.698;2023-03-24T17:29:30;15.60;93.50
1570;DHT22;778;50.120;8.698;2023-03-24T17:31:59;15.60;93.60
1570;DHT22;778;50.120;8.698;2023-03-24T17:34:27;15.50;94.10